Time;durP1;ratioP1;P1;durP2;ratioP2;P2;SDS_P1;SDS_P2;PMS_P1;PMS_P2;Temp;Humidity;BMP_temperature;BMP_pressure;BME280_temperature;BME280_humidity;BME280_pressure;Samples;Min_cycle;Max_cycle;Signal;HPM_P1;HPM_P2
2021/11/12 00:17:16;;;;;;;61.10;29.70;;;;;2.50;101684.00;;;;10415140;28;20252;-78
2021/11/12 00:22:20;;;;;;;60.43;33.73;;;;;2.50;101673.00;;;;10431087;28;20206;-79
2021/11/12 00:27:24;;;;;;;53.47;29.67;;;;;2.50;101679.00;;;;10446428;28;20190;-79
2021/11/12 00:48:45;;;;;;;50.13;28.67;;;;;2.30;101637.00;;;;10443984;28;20203;-79
2021/11/12 00:58:20;;;;;;;58.93;30.93;;;;;2.20;101646.00;;;;10440975;28;20280;-78
2021/11/12 01:03:24;;;;;;;50.70;27.93;;;;;2.10;101648.00;;;;10436562;28;20198;-79
2021/11/12 01:08:27;;;;;;;57.27;29.97;;;;;2.10;101653.00;;;;10428892;28;20221;-79
2021/11/12 01:13:30;;;;;;;63.70;31.20;;;;;2.00;101653.00;;;;10444858;28;20293;-79
2021/11/12 01:18:36;;;;;;;61.57;30.13;;;;;2.00;101636.00;;;;10393574;28;20270;-79
2021/11/12 01:23:40;;;;;;;59.20;31.93;;;;;2.00;101627.00;;;;10423016;28;20589;-79
2021/11/12 01:28:42;;;;;;;74.07;33.70;;;;;2.00;101634.00;;;;10444415;28;20198;-79
2021/11/12 01:33:44;;;;;;;67.87;34.70;;;;;2.10;101622.00;;;;10443931;28;20238;-79
2021/11/12 01:38:47;;;;;;;69.83;34.97;;;;;2.10;101620.00;;;;10411687;28;20276;-79
2021/11/12 01:43:55;;;;;;;75.30;37.53;;;;;2.10;101605.00;;;;10412055;28;20194;-79
2021/11/12 01:49:08;;;;;;;76.93;35.60;;;;;2.20;101597.00;;;;10444524;28;20182;-79
2021/11/12 01:59:23;;;;;;;73.60;33.53;;;;;2.10;101579.00;;;;10427984;28;20577;-79
2021/11/12 02:04:28;;;;;;;79.13;36.03;;;;;2.10;101576.00;;;;10427266;28;20198;-80
2021/11/12 02:09:30;;;;;;;66.03;30.50;;;;;1.90;101564.00;;;;10425295;28;20539;-80
2021/11/12 02:14:33;;;;;;;57.67;28.77;;;;;1.80;101568.00;;;;10409962;28;20195;-79
2021/11/12 02:19:36;;;;;;;57.90;30.47;;;;;1.70;101567.00;;;;10408970;28;20210;-79
2021/11/12 02:24:47;;;;;;;57.27;28.37;;;;;1.60;101579.00;;;;10409193;28;20202;-80
2021/11/12 02:29:54;;;;;;;57.80;26.97;;;;;1.50;101571.00;;;;10424793;28;20226;-80
2021/11/12 02:35:00;;;;;;;50.07;25.83;;;;;1.40;101564.00;;;;10409402;28;20655;-79
2021/11/12 02:40:03;;;;;;;62.93;31.17;;;;;1.40;101552.00;;;;10424477;28;20214;-80
2021/11/12 02:45:05;;;;;;;64.30;30.27;;;;;1.30;101543.00;;;;10424471;28;20303;-79
2021/11/12 02:50:08;;;;;;;55.37;28.67;;;;;1.20;101548.00;;;;10407318;28;20657;-80
2021/11/12 02:55:10;;;;;;;53.70;28.23;;;;;1.20;101539.00;;;;10393673;28;20257;-80
2021/11/12 03:00:15;;;;;;;51.83;28.20;;;;;1.20;101533.00;;;;10423999;28;20273;-79
2021/11/12 03:05:17;;;;;;;62.30;29.20;;;;;1.10;101528.00;;;;10407573;28;20256;-79
2021/11/12 03:10:19;;;;;;;47.97;27.67;;;;;1.10;101523.00;;;;10424290;28;20194;-79
2021/11/12 03:15:21;;;;;;;45.63;27.10;;;;;1.00;101509.00;;;;10376162;28;20249;-80
2021/11/12 03:20:24;;;;;;;49.77;27.20;;;;;0.90;101525.00;;;;10390341;28;20214;-79
2021/11/12 03:25:45;;;;;;;42.30;25.83;;;;;0.90;101540.00;;;;10438750;28;20253;-80
2021/11/12 04:02:34;;;;;;;65.20;34.60;;;;;1.30;101495.00;;;;10412689;28;20568;-80
2021/11/12 05:43:51;;;;;;;59.10;29.73;;;;;2.20;101355.00;;;;10431071;28;20198;-81
2021/11/12 05:59:38;;;;;;;65.90;33.27;;;;;2.20;101359.00;;;;10425358;28;20218;-80
2021/11/12 06:04:40;;;;;;;65.03;32.40;;;;;2.20;101359.00;;;;10433322;28;20200;-80
2021/11/12 06:09:43;;;;;;;74.60;34.43;;;;;2.10;101366.00;;;;10420066;28;20329;-80
2021/11/12 06:14:45;;;;;;;77.37;36.60;;;;;2.10;101348.00;;;;10383711;28;20198;-80
2021/11/12 06:19:47;;;;;;;74.03;38.83;;;;;2.10;101364.00;;;;10414230;28;20267;-80
2021/11/12 06:24:49;;;;;;;75.33;34.77;;;;;2.10;101383.00;;;;10407289;28;20198;-80
2021/11/12 06:29:53;;;;;;;71.27;34.60;;;;;2.00;101376.00;;;;10423942;28;20222;-80
2021/11/12 06:34:55;;;;;;;73.23;36.07;;;;;1.90;101375.00;;;;10403086;28;20550;-80
2021/11/12 06:39:57;;;;;;;79.20;38.13;;;;;1.80;101344.00;;;;10407573;28;20210;-80
2021/11/12 06:50:12;;;;;;;71.70;34.97;;;;;1.90;101348.00;;;;10422536;28;20221;-80
2021/11/12 06:55:16;;;;;;;84.47;39.43;;;;;1.90;101345.00;;;;10422530;28;20198;-80
2021/11/12 07:00:19;;;;;;;84.80;39.07;;;;;2.10;101349.00;;;;10424476;28;20280;-80
2021/11/12 07:05:21;;;;;;;87.80;40.27;;;;;2.10;101366.00;;;;10423376;28;20198;-80
2021/11/12 07:10:23;;;;;;;90.27;39.60;;;;;2.20;101351.00;;;;10423039;28;20202;-80
2021/11/12 07:15:25;;;;;;;97.87;41.87;;;;;2.30;101339.00;;;;10423236;28;20213;-81
2021/11/12 07:20:28;;;;;;;84.53;39.03;;;;;2.50;101317.00;;;;10396295;28;20583;-81
2021/11/12 07:25:30;;;;;;;91.67;44.27;;;;;2.60;101300.00;;;;10438704;28;20210;-80
2021/11/12 07:30:34;;;;;;;94.63;43.73;;;;;2.70;101306.00;;;;10427139;28;20286;-80
2021/11/12 07:35:43;;;;;;;91.70;45.03;;;;;2.80;101307.00;;;;10422235;28;20559;-81
2021/11/12 07:41:02;;;;;;;97.17;45.03;;;;;2.90;101277.00;;;;10421943;28;20206;-82
2021/11/12 07:51:13;;;;;;;89.70;44.40;;;;;3.20;101300.00;;;;10403311;28;20631;-81
2021/11/12 07:56:15;;;;;;;91.47;44.00;;;;;3.30;101323.00;;;;10393061;28;20203;-80
2021/11/12 08:01:17;;;;;;;101.63;45.43;;;;;3.50;101326.00;;;;10421826;28;20233;-80
2021/11/12 08:06:21;;;;;;;90.83;43.60;;;;;3.60;101313.00;;;;10429727;28;20234;-80
2021/11/12 08:11:34;;;;;;;86.23;42.77;;;;;3.80;101330.00;;;;10429404;28;20206;-81
2021/11/12 08:32:50;;;;;;;102.87;48.33;;;;;4.90;101294.00;;;;10438202;28;20280;-80
2021/11/12 08:42:40;;;;;;;87.07;47.60;;;;;6.00;101325.00;;;;10427958;28;20715;-80
2021/11/12 08:47:45;;;;;;;82.27;46.07;;;;;6.40;101338.00;;;;10426778;28;20654;-80
2021/11/12 08:52:52;;;;;;;59.53;37.73;;;;;6.80;101345.00;;;;10441334;28;20234;-80
2021/11/12 08:57:55;;;;;;;47.37;30.50;;;;;7.20;101321.00;;;;10427385;28;20215;-81
2021/11/12 09:02:58;;;;;;;41.10;27.93;;;;;7.50;101319.00;;;;10424518;28;20206;-78
2021/11/12 09:08:02;;;;;;;38.57;25.20;;;;;7.60;101305.00;;;;10427021;28;20202;-81
2021/11/12 09:13:19;;;;;;;36.97;25.40;;;;;7.70;101287.00;;;;10432596;28;20210;-78
2021/11/12 09:18:24;;;;;;;39.83;25.50;;;;;7.80;101288.00;;;;10443660;28;20617;-80
2021/11/12 09:23:26;;;;;;;39.90;24.73;;;;;7.90;101279.00;;;;10426305;28;20612;-80
2021/11/12 09:28:28;;;;;;;35.93;25.77;;;;;8.00;101262.00;;;;10412796;28;20210;-78
2021/11/12 09:33:30;;;;;;;39.90;24.70;;;;;8.20;101248.00;;;;10404766;28;20321;-80
2021/11/12 09:38:31;;;;;;;38.17;24.63;;;;;8.40;101252.00;;;;10442841;28;20217;-78
2021/11/12 09:43:35;;;;;;;33.87;21.13;;;;;8.80;101250.00;;;;10407036;28;20233;-78
2021/11/12 09:48:38;;;;;;;32.00;20.87;;;;;9.10;101261.00;;;;10425217;28;20195;-78
2021/11/12 09:53:41;;;;;;;30.43;19.73;;;;;9.40;101241.00;;;;10424329;28;20210;-78
2021/11/12 09:58:49;;;;;;;33.93;19.87;;;;;9.70;101221.00;;;;10439109;28;20209;-78
2021/11/12 10:03:50;;;;;;;31.17;19.47;;;;;10.10;101207.00;;;;10442239;28;20202;-78
2021/11/12 10:08:54;;;;;;;32.37;17.70;;;;;10.40;101213.00;;;;10430412;28;20208;-78
2021/11/12 10:14:01;;;;;;;26.43;16.90;;;;;10.70;101218.00;;;;10404825;28;20206;-78
2021/11/12 10:19:12;;;;;;;24.67;17.27;;;;;11.20;101209.00;;;;10439705;28;20210;-78
2021/11/12 10:24:30;;;;;;;23.37;16.60;;;;;11.50;101199.00;;;;10438958;28;20245;-78
2021/11/12 10:29:40;;;;;;;21.43;15.03;;;;;11.90;101186.00;;;;10439668;28;20222;-78
2021/11/12 10:34:43;;;;;;;22.40;16.00;;;;;12.30;101190.00;;;;10423071;28;20678;-78
2021/11/12 10:39:56;;;;;;;25.60;15.00;;;;;12.40;101177.00;;;;10442947;28;20997;-78
2021/11/12 10:45:04;;;;;;;19.40;14.20;;;;;12.60;101175.00;;;;10433126;28;20920;-78
2021/11/12 10:50:09;;;;;;;20.03;13.73;;;;;12.70;101163.00;;;;10451221;28;20225;-78
2021/11/12 10:55:16;;;;;;;17.30;13.67;;;;;12.80;101169.00;;;;10406284;28;20206;-78
2021/11/12 11:00:23;;;;;;;19.27;14.37;;;;;13.10;101160.00;;;;10421206;28;20612;-78
2021/11/12 11:05:26;;;;;;;17.00;13.03;;;;;13.30;101153.00;;;;10391754;28;20206;-78
2021/11/12 11:10:37;;;;;;;20.20;14.23;;;;;13.60;101154.00;;;;10397297;28;20203;-78
2021/11/12 11:15:41;;;;;;;17.27;12.80;;;;;13.60;101147.00;;;;10438115;28;20241;-78
2021/11/12 11:20:45;;;;;;;15.23;10.90;;;;;13.80;101138.00;;;;10442372;28;20298;-78
2021/11/12 11:25:50;;;;;;;15.27;11.30;;;;;13.70;101127.00;;;;10421252;28;20194;-78
2021/11/12 11:30:52;;;;;;;15.70;11.17;;;;;13.80;101132.00;;;;10405545;28;20234;-78
2021/11/12 11:35:57;;;;;;;16.13;11.07;;;;;13.90;101111.00;;;;10422332;28;20268;-78
2021/11/12 11:41:01;;;;;;;13.23;10.13;;;;;13.90;101093.00;;;;10401155;28;20223;-78
2021/11/12 11:46:10;;;;;;;12.83;10.27;;;;;14.00;101077.00;;;;10411873;28;20203;-78
2021/11/12 11:51:18;;;;;;;13.57;10.27;;;;;14.20;101062.00;;;;10454121;28;20198;-78
2021/11/12 11:56:29;;;;;;;13.33;9.97;;;;;14.60;101066.00;;;;10445546;28;20212;-78
2021/11/12 12:01:33;;;;;;;14.00;9.50;;;;;14.70;101060.00;;;;10441440;28;20218;-79
2021/11/12 12:06:35;;;;;;;13.23;8.50;;;;;14.90;101046.00;;;;10438553;28;20774;-78
2021/11/12 12:11:46;;;;;;;12.37;9.23;;;;;15.30;101052.00;;;;10418844;28;20268;-78
2021/11/12 12:17:32;;;;;;;12.87;8.60;;;;;15.70;101045.00;;;;10445543;28;20237;-78
2021/11/12 12:33:42;;;;;;;9.77;8.05;;;;;16.20;101053.00;;;;10452646;28;20289;-78
2021/11/12 13:28:23;;;;;;;8.30;5.70;;;;;14.70;100973.00;;;;10437184;28;20205;-78
2021/11/12 13:33:37;;;;;;;7.10;5.00;;;;;14.50;100967.00;;;;10425135;28;20242;-78
2021/11/12 13:38:43;;;;;;;5.90;4.73;;;;;14.20;100962.00;;;;10416414;28;20222;-78
2021/11/12 13:43:47;;;;;;;6.30;4.23;;;;;14.10;100950.00;;;;10449811;28;20201;-78
2021/11/12 13:48:52;;;;;;;5.57;3.70;;;;;14.20;100944.00;;;;10400019;28;20226;-78
2021/11/12 13:53:54;;;;;;;6.63;4.20;;;;;14.30;100925.00;;;;10422423;28;20210;-78
2021/11/12 13:59:11;;;;;;;5.63;3.73;;;;;14.10;100919.00;;;;10410121;28;20221;-78
2021/11/12 14:04:32;;;;;;;4.00;3.60;;;;;14.40;100904.00;;;;10385468;28;20206;-78
2021/11/12 14:09:34;;;;;;;6.90;4.13;;;;;15.50;100891.00;;;;10414297;28;20280;-78
2021/11/12 14:14:38;;;;;;;4.70;3.73;;;;;16.20;100866.00;;;;10421693;28;20675;-78
2021/11/12 14:24:52;;;;;;;5.03;4.10;;;;;14.70;100853.00;;;;10418851;28;20194;-78
2021/11/12 14:41:27;;;;;;;8.60;3.90;;;;;13.30;100844.00;;;;10439481;28;20641;-78
2021/11/12 14:46:42;;;;;;;6.47;3.50;;;;;13.10;100839.00;;;;10422321;28;20217;-78
2021/11/12 15:02:28;;;;;;;4.00;2.60;;;;;12.70;100806.00;;;;10415842;28;20713;-78
2021/11/12 15:07:42;;;;;;;3.27;2.83;;;;;12.60;100798.00;;;;10418289;28;20194;-77
2021/11/12 15:12:49;;;;;;;3.50;2.50;;;;;12.40;100788.00;;;;10455114;28;20270;-78
2021/11/12 15:17:54;;;;;;;4.67;3.53;;;;;12.20;100772.00;;;;10422483;28;20260;-77
2021/11/12 15:28:09;;;;;;;5.60;4.13;;;;;12.00;100748.00;;;;10455377;28;20198;-77
2021/11/12 15:33:16;;;;;;;5.37;3.43;;;;;11.80;100745.00;;;;10438741;28;20222;-77
2021/11/12 15:43:51;;;;;;;4.83;3.50;;;;;11.50;100734.00;;;;10421582;28;20206;-77
2021/11/12 15:48:54;;;;;;;5.50;3.90;;;;;11.40;100734.00;;;;10405461;28;20256;-77
2021/11/12 16:25:53;;;;;;;7.77;4.37;;;;;10.00;100796.00;;;;10387601;28;20242;-77
2021/11/12 16:30:58;;;;;;;8.97;4.70;;;;;10.10;100785.00;;;;10371858;28;20218;-76
2021/11/12 16:36:05;;;;;;;12.13;4.77;;;;;9.90;100791.00;;;;10387338;28;20234;-77
2021/11/12 16:41:30;;;;;;;6.37;5.03;;;;;9.70;100797.00;;;;10404159;28;20210;-78
2021/11/12 16:46:48;;;;;;;8.40;5.23;;;;;9.40;100808.00;;;;10403744;28;20613;-78
2021/11/12 17:03:23;;;;;;;9.67;5.57;;;;;8.90;100799.00;;;;10418491;28;20253;-78
2021/11/12 17:18:52;;;;;;;12.43;7.20;;;;;9.10;100802.00;;;;10440449;28;20202;-78
2021/11/12 17:50:41;;;;;;;17.80;12.03;;;;;9.40;100819.00;;;;10385611;28;20210;-77
2021/11/12 21:46:32;;;;;;;19.33;13.23;;;;;9.40;100636.00;;;;10412620;28;20201;-79
2021/11/12 21:51:33;;;;;;;21.67;13.20;;;;;9.50;100640.00;;;;10421209;28;20190;-79
2021/11/12 21:56:36;;;;;;;19.50;13.37;;;;;9.50;100637.00;;;;10389145;28;20217;-79
2021/11/12 22:01:42;;;;;;;22.90;13.67;;;;;9.50;100630.00;;;;10431532;28;20300;-80
2021/11/12 22:06:44;;;;;;;16.73;12.57;;;;;9.60;100624.00;;;;10422699;28;20206;-78
2021/11/12 22:11:46;;;;;;;17.93;12.70;;;;;9.60;100626.00;;;;10405160;28;20199;-79
2021/11/12 22:16:48;;;;;;;20.33;12.93;;;;;9.70;100606.00;;;;10457457;28;20202;-79
2021/11/12 22:21:50;;;;;;;17.53;12.77;;;;;9.80;100598.00;;;;10428968;28;20310;-78
2021/11/12 22:26:53;;;;;;;21.60;12.87;;;;;9.80;100595.00;;;;10447295;28;20209;-77
2021/11/12 22:31:57;;;;;;;20.20;12.97;;;;;9.80;100603.00;;;;10428160;28;20234;-79
2021/11/12 22:37:17;;;;;;;20.77;12.80;;;;;9.80;100603.00;;;;10426186;28;20276;-79
2021/11/12 22:42:19;;;;;;;20.20;14.67;;;;;9.80;100604.00;;;;10385125;28;20221;-78
2021/11/12 22:47:21;;;;;;;21.23;12.97;;;;;9.80;100611.00;;;;10419123;28;20209;-79
2021/11/12 22:52:23;;;;;;;25.17;13.60;;;;;9.90;100612.00;;;;10371238;28;20194;-77
2021/11/12 22:57:25;;;;;;;22.23;13.23;;;;;9.90;100608.00;;;;10431941;28;20206;-78
2021/11/12 23:02:27;;;;;;;23.70;14.03;;;;;9.80;100594.00;;;;10414712;28;20264;-79
2021/11/12 23:07:29;;;;;;;24.73;14.43;;;;;9.70;100581.00;;;;10422779;28;20212;-80
2021/11/12 23:12:31;;;;;;;23.67;14.73;;;;;9.60;100571.00;;;;10419606;28;20198;-80
2021/11/12 23:17:33;;;;;;;26.27;14.87;;;;;9.60;100568.00;;;;10451988;28;20194;-80
2021/11/12 23:22:37;;;;;;;25.00;14.87;;;;;9.50;100558.00;;;;10427874;28;20213;-79
2021/11/12 23:27:40;;;;;;;26.87;14.73;;;;;9.50;100545.00;;;;10445086;28;20193;-80
2021/11/12 23:32:42;;;;;;;32.20;16.57;;;;;9.40;100528.00;;;;10419529;28;20797;-80
2021/11/12 23:37:44;;;;;;;29.43;14.90;;;;;9.40;100525.00;;;;10427114;28;20194;-80
2021/11/12 23:42:49;;;;;;;26.40;15.73;;;;;9.40;100509.00;;;;10387593;28;20360;-80
2021/11/12 23:47:51;;;;;;;27.57;17.43;;;;;9.50;100517.00;;;;10419418;28;20198;-80
2021/11/12 23:52:53;;;;;;;28.87;15.53;;;;;9.50;100512.00;;;;10419472;28;20194;-80
2021/11/12 23:57:56;;;;;;;28.90;16.60;;;;;9.50;100524.00;;;;10403533;28;20202;-80
